Time;durP1;ratioP1;P1;durP2;ratioP2;P2;SDS_P1;SDS_P2;PMS_P1;PMS_P2;Temp;Humidity;BMP_temperature;BMP_pressure;BME280_temperature;BME280_humidity;BME280_pressure;Samples;Min_cycle;Max_cycle;Signal;HPM_P1;HPM_P2
2022/02/01 00:02:48;;;;;;;20.65;6.07;;;;;;;5.32;56.57;102262.31;4996500;28;20050;-64
2022/02/01 00:05:58;;;;;;;19.23;5.93;;;;;;;5.13;57.17;102258.09;4994240;28;20046;-65
2022/02/01 00:08:18;;;;;;;24.65;5.75;;;;;;;5.03;57.15;102255.97;5024497;28;20519;-64
2022/02/01 00:37:52;;;;;;;19.10;5.30;;;;;;;5.01;56.83;102251.81;4997935;28;20505;-64
2022/02/01 00:40:20;;;;;;;12.95;4.88;;;;;;;4.95;57.39;102259.06;5017053;28;20054;-64
2022/02/01 00:42:47;;;;;;;21.58;5.45;;;;;;;5.02;57.24;102256.22;5024908;28;20076;-64
2022/02/01 00:45:14;;;;;;;15.32;5.10;;;;;;;5.01;57.23;102257.28;5036586;28;20484;-65
2022/02/01 00:47:43;;;;;;;21.65;5.30;;;;;;;5.07;57.23;102257.16;5036568;28;20057;-65
2022/02/01 00:50:16;;;;;;;20.23;5.32;;;;;;;5.05;57.37;102262.03;5035438;28;20431;-64
2022/02/01 00:52:44;;;;;;;20.85;5.22;;;;;;;4.83;57.71;102258.22;5036884;28;20068;-64
2022/02/01 00:55:12;;;;;;;24.25;5.65;;;;;;;5.00;57.72;102266.53;5036496;28;20049;-63
2022/02/01 00:57:39;;;;;;;18.88;5.50;;;;;;;5.20;57.14;102275.16;5036044;28;20049;-64
2022/02/01 01:00:09;;;;;;;24.35;5.40;;;;;;;4.84;57.89;102278.19;5036290;28;20061;-63
2022/02/01 01:02:37;;;;;;;18.35;5.25;;;;;;;4.94;58.11;102283.88;5014759;28;20531;-64
2022/02/01 01:05:05;;;;;;;13.65;4.57;;;;;;;5.18;57.86;102283.63;5016139;28;20046;-64
2022/02/01 01:07:32;;;;;;;21.48;5.40;;;;;;;5.05;57.78;102289.34;5031526;28;20043;-64
2022/02/01 01:10:01;;;;;;;18.02;4.60;;;;;;;4.95;57.35;102300.00;5036259;28;20052;-64
2022/02/01 01:12:32;;;;;;;19.63;4.72;;;;;;;4.73;58.87;102309.03;5036211;28;20053;-63
2022/02/01 01:45:09;;;;;;;17.83;5.00;;;;;;;5.02;59.59;102258.94;4974695;28;20068;-64
2022/02/01 01:55:41;;;;;;;18.95;4.32;;;;;;;5.07;60.22;102267.25;5035697;28;20071;-64
2022/02/01 01:58:08;;;;;;;20.60;4.13;;;;;;;4.98;60.86;102268.69;5035075;28;20049;-64
2022/02/01 02:01:11;;;;;;;16.48;4.93;;;;;;;4.96;61.14;102274.38;5017951;28;20058;-64
2022/02/01 02:03:46;;;;;;;23.75;4.38;;;;;;;4.93;61.76;102271.28;5013943;28;20061;-63
2022/02/01 02:06:15;;;;;;;20.38;4.97;;;;;;;4.82;62.33;102263.94;5026522;28;20447;-62
2022/02/01 02:08:46;;;;;;;17.73;4.25;;;;;;;4.80;62.54;102252.41;5035227;28;20053;-63
2022/02/01 02:11:43;;;;;;;14.38;4.30;;;;;;;4.99;62.54;102262.97;5035118;28;20377;-63
2022/02/01 02:14:28;;;;;;;15.98;4.15;;;;;;;5.01;62.51;102260.84;5053149;28;20049;-62
2022/02/01 02:16:54;;;;;;;20.85;4.45;;;;;;;5.17;62.64;102251.06;5015292;28;20049;-62
2022/02/01 02:19:23;;;;;;;19.33;4.00;;;;;;;5.17;62.47;102257.38;5015149;28;20050;-63
2022/02/01 02:21:56;;;;;;;25.55;4.50;;;;;;;5.24;62.18;102249.88;5031960;28;20059;-63
2022/02/01 02:24:25;;;;;;;22.98;4.40;;;;;;;5.24;62.84;102269.00;5042783;28;20053;-62
2022/02/01 02:26:53;;;;;;;17.20;4.00;;;;;;;5.26;62.96;102269.59;5032943;28;20053;-62
2022/02/01 02:29:20;;;;;;;23.73;4.43;;;;;;;5.54;62.03;102269.63;5032310;28;20362;-63
2022/02/01 02:31:48;;;;;;;22.92;3.88;;;;;;;5.54;62.30;102268.81;5019199;28;20429;-63
2022/02/01 02:34:16;;;;;;;17.92;4.88;;;;;;;5.37;62.91;102257.78;5015252;28;20050;-65
2022/02/01 02:36:52;;;;;;;20.80;5.53;;;;;;;5.37;63.57;102262.44;5000795;28;20046;-62
2022/02/01 02:45:04;;;;;;;17.83;3.78;;;;;;;5.66;62.60;102253.19;4973456;28;20099;-63
2022/02/01 02:45:15;;;;;;;15.90;3.90;;;;;;;5.53;63.93;102248.00;5012979;28;20058;-63
2022/02/01 02:47:43;;;;;;;16.08;4.03;;;;;;;5.41;64.26;102252.69;5015063;28;20408;-62
2022/02/01 02:50:10;;;;;;;20.08;3.83;;;;;;;5.22;65.10;102256.66;5013582;28;20512;-63
2022/02/01 02:52:38;;;;;;;21.85;4.13;;;;;;;5.08;65.68;102247.06;5033232;28;20057;-64
2022/02/01 02:55:05;;;;;;;20.48;4.22;;;;;;;5.03;66.29;102233.28;5034870;28;20057;-63
2022/02/01 02:57:34;;;;;;;23.02;4.72;;;;;;;4.99;66.50;102223.91;5037358;28;20056;-63
2022/02/01 03:00:02;;;;;;;18.35;4.70;;;;;;;5.09;66.80;102219.50;5038584;28;20041;-62
2022/02/01 03:02:33;;;;;;;20.58;4.75;;;;;;;5.04;67.10;102210.38;5038600;28;20049;-63
2022/02/01 03:05:01;;;;;;;17.70;3.72;;;;;;;5.17;66.83;102221.03;5038244;28;20054;-63
2022/02/01 03:07:28;;;;;;;19.52;4.97;;;;;;;5.23;67.49;102214.63;5037711;28;20045;-62
2022/02/01 03:09:58;;;;;;;25.60;4.63;;;;;;;5.10;67.33;102215.72;5021006;28;20048;-62
2022/02/01 03:12:45;;;;;;;25.52;4.65;;;;;;;5.18;67.47;102215.31;5043708;28;20056;-61
2022/02/01 03:15:37;;;;;;;18.10;4.07;;;;;;;5.13;67.92;102208.91;5039775;28;20053;-62
2022/02/01 03:20:50;;;;;;;25.17;5.00;;;;;;;5.37;67.37;102200.41;5038260;28;20064;-63
2022/02/01 03:23:18;;;;;;;23.95;4.50;;;;;;;5.44;67.56;102190.19;5038300;28;20064;-62
2022/02/01 03:25:45;;;;;;;23.75;4.22;;;;;;;5.65;66.85;102186.75;5017464;28;20052;-63
2022/02/01 03:28:12;;;;;;;23.77;4.93;;;;;;;5.59;67.08;102187.75;5029518;28;20049;-62
2022/02/01 03:30:40;;;;;;;18.08;3.83;;;;;;;5.45;67.99;102194.59;5038276;28;20061;-63
2022/02/01 03:33:07;;;;;;;18.52;3.85;;;;;;;5.14;69.51;102186.03;5050215;28;20053;-62
2022/02/01 03:35:34;;;;;;;24.00;4.70;;;;;;;5.25;69.73;102199.63;5038285;28;20056;-63
2022/02/01 03:38:02;;;;;;;22.50;3.65;;;;;;;5.38;69.99;102193.06;5038088;28;20488;-63
2022/02/01 03:40:30;;;;;;;22.88;4.57;;;;;;;5.68;69.49;102207.31;5036704;28;20049;-62
2022/02/01 03:42:57;;;;;;;21.73;4.43;;;;;;;5.52;69.44;102202.63;5020252;28;20508;-62
2022/02/01 03:45:24;;;;;;;29.23;4.70;;;;;;;5.62;69.36;102202.81;5019849;28;20489;-63
2022/02/01 03:47:52;;;;;;;15.45;3.75;;;;;;;5.45;70.08;102210.16;5018228;28;20055;-62
2022/02/01 03:50:20;;;;;;;23.48;4.32;;;;;;;5.43;70.25;102201.34;5033417;28;20053;-62
2022/02/01 03:52:47;;;;;;;21.50;4.22;;;;;;;5.47;70.34;102184.22;5037826;28;20497;-63
2022/02/01 03:55:14;;;;;;;18.67;4.32;;;;;;;5.34;71.04;102178.22;5037767;28;20053;-62
2022/02/01 03:57:42;;;;;;;20.77;4.00;;;;;;;5.45;71.25;102174.63;5037376;28;20046;-63
2022/02/01 04:00:10;;;;;;;23.58;4.43;;;;;;;5.58;71.04;102169.69;5037582;28;20049;-62
2022/02/01 04:02:40;;;;;;;21.92;3.80;;;;;;;5.72;70.53;102173.78;5037096;28;20074;-63
2022/02/01 04:05:08;;;;;;;18.42;4.35;;;;;;;5.94;70.07;102165.72;5020461;28;20057;-63
2022/02/01 04:07:35;;;;;;;23.45;4.32;;;;;;;5.82;70.94;102175.88;5037348;28;20046;-63
2022/02/01 04:10:03;;;;;;;20.98;3.45;;;;;;;5.67;71.44;102168.22;5035117;28;20061;-62
2022/02/01 04:12:30;;;;;;;17.98;4.00;;;;;;;5.78;71.73;102168.38;5043080;28;20044;-63
2022/02/01 04:14:59;;;;;;;15.85;3.83;;;;;;;5.80;72.03;102167.09;5057248;28;20041;-62
2022/02/01 04:17:26;;;;;;;16.17;3.45;;;;;;;5.62;72.73;102167.28;5056365;28;20048;-62
2022/02/01 04:19:54;;;;;;;16.17;3.35;;;;;;;5.77;72.80;102164.81;5048992;28;20064;-62
2022/02/01 04:22:21;;;;;;;19.83;3.75;;;;;;;5.67;73.06;102159.19;5037311;28;20064;-63
2022/02/01 04:24:49;;;;;;;16.23;4.43;;;;;;;5.73;73.85;102169.16;5037341;28;20588;-62
2022/02/01 04:27:30;;;;;;;21.30;4.00;;;;;;;5.75;74.22;102167.00;5036922;28;20037;-63
2022/02/01 04:30:07;;;;;;;22.77;4.95;;;;;;;6.04;74.10;102159.59;5036635;28;20041;-63
2022/02/01 04:32:37;;;;;;;22.52;4.15;;;;;;;5.99;73.69;102162.22;5043999;28;20064;-62
2022/02/01 04:35:05;;;;;;;;;;;;;;;5.81;74.85;102156.94;5042047;28;20523;-63
2022/02/01 04:37:33;;;;;;;17.55;3.60;;;;;;;5.57;75.97;102169.94;5039254;28;19928;-62
2022/02/01 04:40:01;;;;;;;21.63;4.22;;;;;;;5.49;77.38;102167.59;5047338;28;20511;-62
2022/02/01 04:42:31;;;;;;;21.25;3.92;;;;;;;5.57;77.46;102168.03;5036637;28;20053;-62
2022/02/01 04:44:59;;;;;;;20.50;3.65;;;;;;;5.66;77.84;102168.47;5036779;28;20045;-63
2022/02/01 04:47:32;;;;;;;18.50;3.65;;;;;;;5.70;77.80;102166.91;5036781;28;20120;-62
2022/02/01 04:50:01;;;;;;;28.05;4.53;;;;;;;5.66;78.02;102166.56;5036441;28;20057;-62
2022/02/01 04:52:29;;;;;;;17.27;3.13;;;;;;;5.91;77.44;102160.72;5036104;28;20049;-62
2022/02/01 04:54:57;;;;;;;18.20;3.67;;;;;;;5.84;77.98;102153.78;5036423;28;20068;-62
2022/02/01 04:57:25;;;;;;;18.33;3.83;;;;;;;5.80;77.82;102156.16;5035602;28;20048;-63
2022/02/01 04:59:52;;;;;;;20.95;3.80;;;;;;;5.86;78.29;102143.44;5036077;28;20400;-63
2022/02/01 05:02:19;;;;;;;23.70;3.92;;;;;;;6.00;77.71;102126.44;5036486;28;20497;-62
2022/02/01 05:04:47;;;;;;;22.67;3.58;;;;;;;6.07;78.01;102124.34;5036705;28;20060;-62
2022/02/01 05:07:14;;;;;;;16.27;4.13;;;;;;;6.07;77.27;102131.72;5036476;28;20050;-62
2022/02/01 05:09:42;;;;;;;17.55;3.70;;;;;;;6.15;76.70;102132.16;5035791;28;20522;-62
2022/02/01 05:12:10;;;;;;;25.73;4.38;;;;;;;6.13;76.86;102134.31;5021708;28;20396;-62
2022/02/01 05:14:38;;;;;;;23.20;4.60;;;;;;;6.12;77.25;102145.50;5037779;28;20049;-64
2022/02/01 05:17:05;;;;;;;19.40;4.05;;;;;;;6.48;76.49;102139.50;5049166;28;20053;-63
2022/02/01 05:22:09;;;;;;;19.50;4.05;;;;;;;6.16;76.92;102150.22;5019758;28;20060;-63
2022/02/01 05:24:38;;;;;;;21.43;3.97;;;;;;;6.10;77.49;102164.88;5036332;28;20056;-63
2022/02/01 05:27:10;;;;;;;20.70;4.53;;;;;;;6.07;77.58;102156.34;5035895;28;20648;-63
2022/02/01 05:29:38;;;;;;;27.98;4.25;;;;;;;5.98;78.66;102146.91;5035404;28;20049;-63
2022/02/01 05:32:22;;;;;;;25.75;4.15;;;;;;;6.10;78.21;102145.72;5017037;28;20060;-63
2022/02/01 05:34:54;;;;;;;23.08;3.50;;;;;;;6.20;78.31;102145.09;5018406;28;20060;-63
2022/02/01 05:37:22;;;;;;;21.02;3.78;;;;;;;6.40;77.78;102143.47;5017616;28;20054;-63
2022/02/01 05:39:50;;;;;;;17.98;4.25;;;;;;;6.14;79.19;102154.28;5018158;28;20059;-63
2022/02/01 05:42:23;;;;;;;20.73;3.90;;;;;;;6.27;78.69;102140.28;5010435;28;20501;-65
2022/02/01 05:44:50;;;;;;;19.20;3.60;;;;;;;6.19;79.24;102135.22;5025122;28;20057;-63
2022/02/01 05:47:17;;;;;;;19.58;3.85;;;;;;;6.25;80.04;102129.56;4997869;28;20172;-62
2022/02/01 05:49:45;;;;;;;20.70;4.55;;;;;;;6.35;79.44;102120.69;5015876;28;20409;-64
2022/02/01 05:52:12;;;;;;;22.40;3.63;;;;;;;6.27;80.03;102112.91;5039687;28;20056;-63
2022/02/01 05:54:40;;;;;;;24.48;3.75;;;;;;;6.43;79.73;102112.88;5003794;28;20061;-62
2022/02/01 05:57:09;;;;;;;21.40;3.75;;;;;;;6.31;80.27;102109.41;5034108;28;20049;-62
2022/02/01 05:59:37;;;;;;;22.27;4.18;;;;;;;6.48;80.80;102092.97;5035112;28;20049;-62
2022/02/01 06:02:06;;;;;;;22.55;3.30;;;;;;;6.51;80.42;102092.44;5033925;28;20045;-63
2022/02/01 06:04:33;;;;;;;20.25;3.65;;;;;;;6.50;80.38;102090.81;5017734;28;20400;-63
2022/02/01 06:07:01;;;;;;;20.50;4.00;;;;;;;6.37;81.44;102075.56;5032088;28;20056;-63
2022/02/01 06:09:29;;;;;;;17.60;3.22;;;;;;;6.56;81.16;102073.34;5034318;28;20053;-62
2022/02/01 06:11:56;;;;;;;22.55;4.13;;;;;;;6.58;81.29;102080.25;5036326;28;20057;-62
2022/02/01 06:14:24;;;;;;;24.00;3.88;;;;;;;6.59;81.40;102083.81;5046977;28;20045;-65
2022/02/01 06:16:51;;;;;;;20.50;3.97;;;;;;;6.72;80.81;102083.44;5035092;28;20049;-64
2022/02/01 06:19:18;;;;;;;20.67;3.95;;;;;;;6.65;80.66;102086.38;5033451;28;20045;-62
2022/02/01 06:21:46;;;;;;;19.88;4.47;;;;;;;6.56;80.93;102092.50;5035044;28;20045;-63
2022/02/01 06:24:17;;;;;;;19.25;4.25;;;;;;;6.54;81.59;102086.47;5035258;28;20496;-63
2022/02/01 06:26:45;;;;;;;24.08;4.78;;;;;;;6.48;82.21;102071.91;5033765;28;20068;-63
2022/02/01 06:29:12;;;;;;;18.88;4.32;;;;;;;6.67;81.47;102086.94;5034846;28;20056;-65
2022/02/01 06:31:39;;;;;;;24.27;4.35;;;;;;;6.65;81.95;102080.88;5026554;28;20129;-63
2022/02/01 06:34:07;;;;;;;21.95;4.13;;;;;;;6.63;81.60;102088.53;5033008;28;20056;-62
2022/02/01 06:36:34;;;;;;;19.35;4.10;;;;;;;6.88;80.98;102081.69;5032986;28;20061;-64
2022/02/01 06:39:03;;;;;;;22.60;4.18;;;;;;;6.96;80.36;102084.00;5032199;28;20041;-62
2022/02/01 06:41:31;;;;;;;38.73;12.23;;;;;;;6.95;80.51;102079.59;5034702;28;20526;-64
2022/02/01 06:43:59;;;;;;;31.80;9.93;;;;;;;6.89;80.78;102064.19;5034764;28;20068;-64
2022/02/01 06:46:26;;;;;;;20.48;4.65;;;;;;;6.99;80.66;102080.75;5032567;28;20041;-63
2022/02/01 06:48:54;;;;;;;20.35;3.78;;;;;;;6.87;80.72;102091.81;5033698;28;20046;-63
2022/02/01 06:51:22;;;;;;;20.67;3.63;;;;;;;6.80;80.72;102086.53;5033159;28;20050;-63
2022/02/01 06:53:50;;;;;;;22.13;4.05;;;;;;;6.85;80.66;102083.06;5034994;28;20045;-64
2022/02/01 06:56:20;;;;;;;27.25;5.30;;;;;;;6.92;80.32;102083.69;5034010;28;20045;-64
2022/02/01 06:58:47;;;;;;;22.60;4.10;;;;;;;7.08;79.93;102081.94;5033318;28;20045;-63
2022/02/01 07:01:15;;;;;;;22.13;4.05;;;;;;;6.88;79.93;102073.47;5032752;28;20057;-62
2022/02/01 07:03:43;;;;;;;21.52;4.10;;;;;;;7.14;80.21;102070.78;5046978;28;20053;-63
2022/02/01 07:06:12;;;;;;;22.38;4.05;;;;;;;6.99;79.92;102070.59;5032632;28;20045;-63
2022/02/01 07:08:43;;;;;;;19.77;4.30;;;;;;;7.32;79.62;102084.09;5032957;28;20048;-63
2022/02/01 07:11:16;;;;;;;20.67;3.45;;;;;;;6.91;79.86;102075.69;5032822;28;20052;-62
2022/02/01 07:13:43;;;;;;;20.52;5.10;;;;;;;7.01;80.50;102095.81;5033661;28;20046;-62
2022/02/01 07:16:11;;;;;;;18.80;4.38;;;;;;;6.78;81.86;102083.22;5032763;28;20072;-61
2022/02/01 07:18:38;;;;;;;15.13;3.80;;;;;;;7.15;81.27;102082.59;5032318;28;20049;-62
2022/02/01 07:21:06;;;;;;;17.33;3.13;;;;;;;7.47;81.31;102075.22;5032955;28;20053;-65
2022/02/01 07:23:34;;;;;;;22.73;4.25;;;;;;;7.51;80.52;102068.13;5034512;28;20049;-65
2022/02/01 07:26:03;;;;;;;22.15;4.45;;;;;;;7.43;80.61;102071.34;5032425;28;20049;-65
2022/02/01 07:28:31;;;;;;;21.42;3.90;;;;;;;7.55;80.37;102081.06;5034028;28;20050;-64
2022/02/01 07:30:59;;;;;;;25.88;3.85;;;;;;;7.51;79.96;102079.94;5016881;28;20512;-67
2022/02/01 07:33:27;;;;;;;23.60;4.22;;;;;;;7.73;82.46;102079.84;5038574;28;20068;-62
2022/02/01 07:35:56;;;;;;;20.73;4.13;;;;;;;8.50;80.25;102074.66;5054151;28;20064;-62
2022/02/01 07:38:25;;;;;;;19.15;4.72;;;;;;;8.66;76.88;102073.63;5043928;28;20070;-63
2022/02/01 07:40:53;;;;;;;;;;;;;;;9.12;74.45;102071.91;5033239;28;20049;-63
2022/02/01 07:43:22;;;;;;;18.67;4.30;;;;;;;8.41;75.78;102068.00;5034529;28;19921;-62
2022/02/01 07:45:50;;;;;;;15.30;3.65;;;;;;;8.15;76.89;102060.69;5020739;28;20061;-63
2022/02/01 07:48:18;;;;;;;17.90;3.53;;;;;;;7.87;78.76;102050.88;5017941;28;20536;-64
2022/02/01 07:50:45;;;;;;;19.98;3.60;;;;;;;7.72;79.98;102046.09;5038903;28;20052;-63
2022/02/01 07:53:12;;;;;;;16.65;3.58;;;;;;;7.59;80.57;102046.56;5035681;28;20046;-62
2022/02/01 07:55:40;;;;;;;17.75;5.32;;;;;;;7.63;80.73;102041.38;5039295;28;20121;-63
2022/02/01 07:58:07;;;;;;;24.23;4.53;;;;;;;7.92;80.33;102028.97;5021117;28;20054;-64
2022/02/01 08:00:34;;;;;;;30.33;6.57;;;;;;;7.99;80.46;102022.19;5018642;28;20053;-62
2022/02/01 08:03:02;;;;;;;18.88;4.03;;;;;;;7.79;81.15;102024.75;5036255;28;20052;-62
2022/02/01 08:05:31;;;;;;;20.77;4.13;;;;;;;7.86;80.54;102028.09;5018099;28;20433;-63
2022/02/01 08:08:06;;;;;;;17.10;3.88;;;;;;;7.88;81.10;102027.84;5026076;28;20064;-63
2022/02/01 08:10:53;;;;;;;19.60;3.75;;;;;;;7.60;81.99;102019.97;5036760;28;20046;-63
2022/02/01 08:16:35;;;;;;;20.95;4.32;;;;;;;7.76;81.71;102019.81;5057407;28;20064;-62
2022/02/01 08:19:09;;;;;;;20.77;4.32;;;;;;;7.68;82.05;102006.59;5057131;28;20053;-63
2022/02/01 08:21:54;;;;;;;25.48;6.22;;;;;;;7.58;82.62;102009.25;5037817;28;20041;-62
2022/02/01 08:24:21;;;;;;;25.00;5.53;;;;;;;7.64;82.56;102016.44;5035393;28;20053;-63
2022/02/01 08:26:49;;;;;;;15.95;4.60;;;;;;;7.74;82.34;102012.94;5036708;28;20054;-62
2022/02/01 08:29:16;;;;;;;16.50;3.85;;;;;;;7.88;81.56;102003.97;5036727;28;20052;-63
2022/02/01 08:31:48;;;;;;;17.33;3.75;;;;;;;7.95;81.17;102012.81;5035315;28;20057;-63
2022/02/01 08:34:17;;;;;;;26.50;9.63;;;;;;;7.87;81.32;102002.34;5037060;28;20416;-62
2022/02/01 08:36:45;;;;;;;23.17;6.03;;;;;;;7.87;81.30;101990.53;5037172;28;20060;-62
2022/02/01 08:39:12;;;;;;;21.27;4.30;;;;;;;7.81;81.18;101997.09;5036895;28;20515;-63
2022/02/01 08:41:40;;;;;;;16.25;3.97;;;;;;;7.80;81.63;101996.25;5035438;28;20068;-63
2022/02/01 08:44:07;;;;;;;19.25;4.07;;;;;;;7.90;81.71;101987.25;5035104;28;20049;-62
2022/02/01 08:46:35;;;;;;;24.85;4.65;;;;;;;7.89;81.70;101980.13;5035360;28;20564;-63
2022/02/01 08:49:02;;;;;;;25.88;4.22;;;;;;;7.86;81.60;101975.19;5023234;28;20053;-63
2022/02/01 08:51:38;;;;;;;18.80;3.90;;;;;;;7.96;81.65;101980.72;5016743;28;20064;-62
2022/02/01 08:54:11;;;;;;;15.48;3.85;;;;;;;7.89;81.69;101980.13;5015674;28;20054;-61
2022/02/01 08:59:29;;;;;;;19.20;4.32;;;;;;;8.08;81.58;101978.59;5034262;28;20073;-62
2022/02/01 09:01:56;;;;;;;20.45;4.40;;;;;;;7.94;82.13;101971.94;5053740;28;20057;-63
2022/02/01 09:04:24;;;;;;;22.35;4.50;;;;;;;7.94;83.24;101969.19;5048823;28;20041;-63
2022/02/01 09:06:52;;;;;;;18.85;4.25;;;;;;;8.21;82.50;101969.06;5036127;28;20061;-63
2022/02/01 09:09:19;;;;;;;16.98;3.83;;;;;;;8.18;82.32;101961.34;5035643;28;20037;-63
2022/02/01 09:11:48;;;;;;;15.23;3.80;;;;;;;8.17;82.41;101957.78;5016057;28;20141;-63
2022/02/01 09:14:15;;;;;;;16.30;4.40;;;;;;;7.82;83.96;101952.09;5017024;28;20053;-63
2022/02/01 09:16:42;;;;;;;18.27;4.32;;;;;;;7.95;84.15;101946.13;5036185;28;20053;-63
2022/02/01 09:19:10;;;;;;;12.65;3.20;;;;;;;8.11;83.99;101939.63;5036680;28;20070;-63
2022/02/01 09:21:38;;;;;;;13.15;3.55;;;;;;;8.33;83.27;101937.59;5036624;28;20064;-64
2022/02/01 09:24:05;;;;;;;22.15;3.92;;;;;;;8.32;82.62;101935.91;5051827;28;20292;-63
2022/02/01 09:26:33;;;;;;;12.25;3.15;;;;;;;8.20;82.70;101940.78;5017512;28;20060;-63
2022/02/01 09:29:17;;;;;;;21.20;4.32;;;;;;;8.28;82.91;101937.53;5035255;28;20060;-64
2022/02/01 09:31:45;;;;;;;31.80;9.60;;;;;;;8.30;82.46;101938.09;5037713;28;20068;-63
2022/02/01 09:34:12;;;;;;;22.70;4.13;;;;;;;8.25;82.91;101931.75;5044467;28;20044;-62
2022/02/01 09:36:43;;;;;;;17.60;4.30;;;;;;;8.34;83.40;101927.41;5048783;28;20056;-64
2022/02/01 09:39:10;;;;;;;20.13;5.05;;;;;;;8.60;82.65;101935.47;5041729;28;20067;-64
2022/02/01 09:41:38;;;;;;;23.17;5.10;;;;;;;8.38;83.06;101931.28;5017718;28;20060;-63
2022/02/01 09:44:07;;;;;;;22.25;4.80;;;;;;;8.44;82.63;101936.50;5029868;28;20041;-64
2022/02/01 09:46:35;;;;;;;15.88;3.63;;;;;;;8.11;83.53;101916.88;5011963;28;20060;-64
2022/02/01 09:49:03;;;;;;;21.70;4.65;;;;;;;7.99;85.34;101912.44;5021600;28;20049;-65
2022/02/01 09:51:32;;;;;;;27.92;4.57;;;;;;;8.28;84.50;101921.06;5055859;28;20045;-64
2022/02/01 09:54:20;;;;;;;20.58;4.35;;;;;;;8.43;83.76;101926.63;5044136;28;20419;-66
2022/02/01 09:56:50;;;;;;;23.40;5.15;;;;;;;8.27;83.80;101915.84;5033478;28;20045;-65
2022/02/01 09:59:21;;;;;;;25.08;5.30;;;;;;;8.26;84.55;101925.19;5030446;28;20049;-63
2022/02/01 10:01:55;;;;;;;15.65;3.92;;;;;;;8.30;84.85;101923.56;5025563;28;20042;-65
2022/02/01 10:04:28;;;;;;;17.52;3.95;;;;;;;8.26;85.11;101922.44;5025067;28;20054;-65
2022/02/01 10:07:11;;;;;;;20.10;4.32;;;;;;;8.29;85.56;101925.50;5033873;28;20050;-64
2022/02/01 10:09:49;;;;;;;19.63;3.97;;;;;;;8.37;85.57;101935.94;5001306;28;20049;-64
2022/02/01 10:12:17;;;;;;;21.63;4.00;;;;;;;8.46;85.29;101926.09;5038559;28;20057;-64
2022/02/01 10:14:52;;;;;;;21.63;4.72;;;;;;;8.60;85.18;101929.97;5054388;28;20057;-63
2022/02/01 10:17:50;;;;;;;18.48;4.25;;;;;;;8.45;85.45;101940.91;5050525;28;20071;-64
2022/02/01 10:20:18;;;;;;;16.52;3.95;;;;;;;8.52;86.34;101927.78;5035663;28;20053;-65
2022/02/01 10:22:45;;;;;;;20.85;4.72;;;;;;;8.78;85.64;101923.97;5029642;28;20057;-64
2022/02/01 10:25:29;;;;;;;13.73;3.90;;;;;;;8.91;84.99;101925.34;5009184;28;20054;-64
2022/02/01 10:27:59;;;;;;;16.63;4.65;;;;;;;8.90;84.33;101910.81;5025380;28;20050;-64
2022/02/01 10:30:47;;;;;;;18.35;4.50;;;;;;;8.52;86.42;101930.50;5025021;28;20037;-64
2022/02/01 10:36:13;;;;;;;13.07;3.78;;;;;;;8.42;87.53;101915.94;5023153;28;20054;-64
2022/02/01 10:38:41;;;;;;;17.65;3.10;;;;;;;8.50;87.58;101910.72;5023649;28;20053;-66
2022/02/01 10:41:13;;;;;;;13.70;3.85;;;;;;;8.58;87.08;101895.63;5027081;28;20044;-64
2022/02/01 10:43:41;;;;;;;15.60;4.70;;;;;;;8.40;87.70;101902.47;5023634;28;20046;-65
2022/02/01 10:46:12;;;;;;;14.00;4.30;;;;;;;8.70;87.05;101905.28;5023392;28;20046;-66
2022/02/01 10:48:46;;;;;;;11.65;3.17;;;;;;;8.63;86.92;101898.41;5024669;28;20054;-64
2022/02/01 10:51:31;;;;;;;12.55;3.72;;;;;;;8.85;86.20;101899.81;5023874;28;20052;-64
2022/02/01 10:53:58;;;;;;;11.70;3.65;;;;;;;8.81;86.75;101893.22;5027421;28;20052;-64
2022/02/01 10:56:26;;;;;;;12.32;3.97;;;;;;;8.95;86.85;101894.31;5008926;28;20057;-66
2022/02/01 10:58:54;;;;;;;11.65;3.70;;;;;;;8.92;86.08;101892.13;5023340;28;20060;-65
2022/02/01 11:01:25;;;;;;;18.33;3.70;;;;;;;8.94;86.55;101876.16;5025354;28;20049;-66
2022/02/01 11:03:53;;;;;;;18.15;4.30;;;;;;;8.97;86.53;101864.66;4993320;28;20940;-65
2022/02/01 11:06:21;;;;;;;13.30;3.45;;;;;;;9.11;86.10;101867.66;5012047;28;20552;-64
2022/02/01 11:08:48;;;;;;;11.07;3.10;;;;;;;9.10;85.34;101871.50;5023093;28;20538;-65
2022/02/01 11:11:36;;;;;;;11.02;2.60;;;;;;;8.73;87.55;101855.31;5028380;28;20412;-66
2022/02/01 11:14:03;;;;;;;11.20;3.35;;;;;;;8.92;87.92;101858.31;5028525;28;20041;-65
2022/02/01 11:16:30;;;;;;;16.23;3.47;;;;;;;8.88;87.72;101851.72;5037525;28;20057;-64
2022/02/01 11:19:06;;;;;;;7.78;2.65;;;;;;;8.90;87.89;101855.03;5027624;28;20483;-66
2022/02/01 11:21:53;;;;;;;9.20;3.00;;;;;;;8.88;88.61;101836.06;5041602;28;20049;-64
2022/02/01 11:24:33;;;;;;;16.02;4.03;;;;;;;8.84;88.30;101843.19;5043306;28;20068;-64
2022/02/01 11:27:15;;;;;;;9.40;3.13;;;;;;;8.99;87.69;101840.47;5029648;28;20054;-64
2022/02/01 11:32:36;;;;;;;17.67;3.03;;;;;;;9.20;87.88;101835.78;5036480;28;20090;-64
2022/02/01 11:35:13;;;;;;;13.52;3.00;;;;;;;9.33;87.14;101842.63;5028772;28;20049;-64
2022/02/01 11:38:06;;;;;;;11.80;2.88;;;;;;;9.37;86.68;101838.22;5027913;28;20056;-64
2022/02/01 11:40:35;;;;;;;7.43;2.38;;;;;;;8.95;87.75;101824.78;5029894;28;20551;-64
2022/02/01 11:43:25;;;;;;;12.50;2.60;;;;;;;9.07;88.47;101839.06;5031015;28;20256;-65
2022/02/01 11:46:04;;;;;;;8.30;2.72;;;;;;;9.22;87.81;101832.75;5031121;28;20053;-65
2022/02/01 11:48:33;;;;;;;14.17;2.40;;;;;;;9.42;87.03;101824.44;5020246;28;20045;-65
2022/02/01 11:51:02;;;;;;;11.70;3.08;;;;;;;9.21;87.37;101820.09;5028275;28;20057;-65
2022/02/01 11:53:32;;;;;;;11.23;3.97;;;;;;;9.33;87.20;101817.88;5032919;28;20072;-65
2022/02/01 11:56:01;;;;;;;13.25;3.97;;;;;;;9.18;87.55;101815.16;5037258;28;20049;-65
2022/02/01 11:58:41;;;;;;;9.68;3.92;;;;;;;9.13;88.43;101814.03;5036612;28;20057;-68
2022/02/01 12:01:36;;;;;;;13.13;4.72;;;;;;;9.53;86.95;101818.66;5034150;28;20045;-67
2022/02/01 12:04:09;;;;;;;8.57;3.45;;;;;;;9.41;86.22;101817.31;5018697;28;20049;-66
2022/02/01 12:06:54;;;;;;;12.13;3.40;;;;;;;9.41;86.89;101818.16;4997000;28;20427;-65
2022/02/01 12:09:24;;;;;;;16.52;3.00;;;;;;;9.56;86.47;101820.00;5026591;28;20045;-67
2022/02/01 12:11:54;;;;;;;14.05;3.30;;;;;;;9.58;86.58;101823.31;5037430;28;20042;-66
2022/02/01 12:14:22;;;;;;;12.23;2.90;;;;;;;9.39;86.59;101828.59;5055812;28;20506;-66
2022/02/01 12:16:51;;;;;;;13.93;2.70;;;;;;;9.29;87.68;101822.28;5044193;28;20534;-64
2022/02/01 12:19:36;;;;;;;13.00;3.37;;;;;;;9.27;88.31;101824.47;5036040;28;20073;-66
2022/02/01 12:22:37;;;;;;;18.90;7.43;;;;;;;9.44;88.06;101814.81;5035490;28;20056;-65
2022/02/01 12:25:07;;;;;;;20.13;7.55;;;;;;;9.41;87.99;101796.16;5016016;28;20050;-66
2022/02/01 12:27:37;;;;;;;16.50;5.00;;;;;;;9.40;88.45;101810.97;5014219;28;20053;-65
2022/02/01 12:30:07;;;;;;;13.30;3.35;;;;;;;9.42;88.41;101802.44;5014528;28;20046;-61
2022/02/01 12:32:34;;;;;;;12.43;3.63;;;;;;;9.27;88.95;101788.75;5024743;28;20057;-63
2022/02/01 12:35:03;;;;;;;11.45;3.85;;;;;;;9.23;89.97;101782.16;5038297;28;20057;-69
2022/02/01 12:37:32;;;;;;;14.13;4.53;;;;;;;9.41;90.87;101773.31;5037432;28;20057;-66
2022/02/01 12:40:04;;;;;;;8.18;2.47;;;;;;;9.21;90.91;101781.59;5036581;28;20045;-62
2022/02/01 12:42:47;;;;;;;8.57;3.10;;;;;;;9.32;91.51;101778.56;5036804;28;20042;-66
2022/02/01 12:48:02;;;;;;;12.27;3.13;;;;;;;9.55;91.36;101777.13;5037215;28;20050;-65
2022/02/01 12:50:29;;;;;;;10.73;3.22;;;;;;;9.49;90.44;101778.22;5035287;28;20045;-68
2022/02/01 12:53:02;;;;;;;8.23;2.42;;;;;;;9.29;91.61;101765.38;5036859;28;20050;-67
2022/02/01 12:55:29;;;;;;;10.30;2.83;;;;;;;9.41;91.89;101751.31;5035746;28;20376;-65
2022/02/01 12:58:13;;;;;;;8.80;2.50;;;;;;;9.59;91.56;101747.97;5031476;28;20056;-67
2022/02/01 13:00:41;;;;;;;9.00;2.65;;;;;;;9.24;92.34;101746.13;5030218;28;20296;-66
2022/02/01 13:03:08;;;;;;;10.52;2.90;;;;;;;9.09;93.60;101743.44;5030197;28;20065;-66
2022/02/01 13:05:38;;;;;;;8.60;2.85;;;;;;;9.39;93.40;101742.53;5018928;28;20057;-66
2022/02/01 13:16:40;;;;;;;12.55;3.00;;;;;;;9.28;94.85;101732.66;5031957;28;20053;-66
2022/02/01 13:21:39;;;;;;;15.65;3.65;;;;;;;9.33;94.42;101716.16;5036340;28;20045;-66
2022/02/01 13:24:10;;;;;;;16.02;3.67;;;;;;;9.38;94.25;101710.63;5039603;28;20054;-66